• Join FlightAware (Why Join?)
  • Login
  • US Flag 
05:18PM EDT


 

Airport Tracker/Info


-or-


 

Live Flight TrackerFlight Track Log ✈ ASQ6023 ✈ 28-Apr-2013 ✈ CYUL - KIAD

Flight Track Log - Related Links

Times and Time Zones

All times are in EDT time to prevent confusion due to time zone crossing. See the ASQ6023 flight status page for this flight to view local times or setup timezone preferences in your user account.

Time Position Orientation Groundspeed Altitude Reporting Facility
EDT Latitude Longitude Course Direction KTS MPH feet Rate Location/Type
09:52AM 45.4667 -73.7000 207° Southwest 130 150 800  Level Montreal Center
09:53AM 45.5000 -73.6500 46° Northeast 200 230 2,600 1,920 Climbing Montreal Center
09:54AM 45.5333 -73.6000 46° Northeast 220 253 4,700 2,040 Climbing Montreal Center
09:55AM 45.4833 -73.5000 125° Southeast 260 299 6,700 2,160 Climbing Montreal Center
09:56AM 45.4167 -73.4833 170° South 270 311 9,100 1,860 Climbing Montreal Center
09:57AM 45.0981 -74.0014 207° Southwest  Level FlightAware Approximate
09:57AM 45.3500 -73.4333 152° Southeast 290 334 10,500  Level Montreal Center
09:58AM 45.2667 -73.5000 209° Southwest 330 380 11,700 1,320 Climbing Montreal Center
09:59AM 45.1833 -73.6000 220° Southwest 340 391 13,200 1,380 Climbing Montreal Center
10:00AM 45.1167 -73.6667 215° Southwest 350 403 14,500 1,260 Climbing Montreal Center
10:01AM 45.0333 -73.7333 209° Southwest 350 403 15,800 1,320 Climbing Montreal Center
10:02AM 44.9500 -73.8333 220° Southwest 360 414 17,200 1,080 Climbing Montreal Center
10:03AM 44.8833 -73.9333 227° Southwest 360 414 18,000 900 Climbing Montreal Center
10:04AM 44.8000 -74.0333 220° Southwest 370 426 19,100 1,020 Climbing Montreal Center
10:05AM 44.7333 -74.1500 231° Southwest 380 437 20,100 1,020 Climbing Montreal Center
10:06AM 44.6500 -74.2500 221° Southwest 380 437 21,200 1,080 Climbing Montreal Center
10:07AM 44.5833 -74.3500 227° Southwest 390 449 22,300 1,020 Climbing Montreal Center
10:08AM 44.5000 -74.4667 225° Southwest 390 449 23,300 1,020 Climbing Montreal Center
10:09AM 44.4167 -74.5667 221° Southwest 390 449 24,400 960 Climbing Montreal Center
10:10AM 44.3500 -74.6833 231° Southwest 390 449 25,300 900 Climbing Montreal Center
10:11AM 44.2667 -74.7833 221° Southwest 390 449 26,300 900 Climbing Montreal Center
10:12AM 44.1833 -74.8667 216° Southwest 390 449 27,200 900 Climbing Montreal Center
10:13AM 44.1000 -74.9833 225° Southwest 390 449 28,200 900 Climbing Montreal Center
10:14AM 44.0333 -75.0833 227° Southwest 390 449 29,100 900 Climbing Montreal Center
10:15AM 43.9500 -75.2000 225° Southwest 390 449 30,100 900 Climbing Montreal Center
10:16AM 43.8667 -75.3000 221° Southwest 390 449 31,000 900 Climbing Montreal Center
10:17AM 43.7833 -75.3833 216° Southwest 390 449 32,000 480 Climbing Montreal Center
10:18AM 43.7000 -75.5000 225° Southwest 400 460 32,000  Level Montreal Center
10:19AM 43.6167 -75.6167 225° Southwest 420 483 32,000  Level Montreal Center
10:20AM 43.5333 -75.7167 221° Southwest 420 483 32,000  Level Montreal Center
10:21AM 43.4500 -75.8333 225° Southwest 420 483 32,000 -240 Level Montreal Center
10:22AM 43.3500 -75.9500 220° Southwest 420 483 31,600 -660 Descending Montreal Center
10:23AM 43.2667 -76.0333 216° Southwest 420 483 30,700 -840 Descending Montreal Center
10:24AM 43.1833 -76.1500 226° Southwest 420 483 30,000 -420 Descending Montreal Center
10:25AM 43.1106 -76.2514 226° Southwest 431 496 29,900  Descending Cleveland Center
10:26AM 43.0075 -76.3353 211° Southwest 431 496 30,000  Climbing Cleveland Center
10:27AM 42.9042 -76.4189 211° Southwest 431 496 30,000  Level Cleveland Center
10:28AM 42.7989 -76.5053 211° Southwest 438 504 30,000  Level Cleveland Center
10:29AM 42.7186 -76.5692 210° Southwest 441 507 30,000  Level New York Center
10:30AM 42.6297 -76.6400 210° Southwest 430 495 30,000  Level New York Center
10:31AM 42.5281 -76.7208 210° Southwest 430 495 30,000  Level New York Center
10:32AM 42.4278 -76.8072 212° Southwest 430 495 30,000  Level New York Center
10:33AM 42.3258 -76.8906 211° Southwest 435 501 30,000 -60 Level New York Center
10:34AM 42.2217 -76.9733 210° Southwest 435 501 29,900 -600 Descending New York Center
10:35AM 42.1175 -77.0528 210° Southwest 435 501 28,900 -1,020 Descending New York Center
10:36AM 42.0150 -77.1381 212° Southwest 440 506 28,000 -480 Descending New York Center
10:37AM 41.9108 -77.2172 209° Southwest 440 506 28,000  Level New York Center
10:38AM 41.8061 -77.3044 212° Southwest 445 512 28,000  Level New York Center
10:39AM 41.6994 -77.3886 211° Southwest 445 512 28,000  Level New York Center
10:40AM 41.5950 -77.4700 210° Southwest 445 512 28,000  Level New York Center
10:41AM 41.4881 -77.5533 210° Southwest 445 512 28,000 -300 Level New York Center
10:42AM 41.3747 -77.6056 199° South 445 512 27,500 -960 Descending New York Center
10:43AM 41.2494 -77.5708 168° South 431 496 26,200 -1,440 Descending New York Center
10:44AM 41.1294 -77.5203 162° South 443 510 24,700 -1,740 Descending New York Center
10:45AM 41.0153 -77.4758 164° South 443 510 22,800 -1,920 Descending New York Center
10:46AM 40.9031 -77.4319 164° South 437 503 20,800 -1,980 Descending New York Center
10:47AM 40.7953 -77.3883 163° South 426 490 18,900 -1,440 Descending New York Center
10:48AM 40.6892 -77.3453 163° South 413 475 18,000 -480 Descending New York Center
10:49AM 40.5708 -77.3011 164° South 407 468 18,000  Level New York Center
10:50AM 40.4747 -77.2647 164° South 407 468 18,000  Level New York Center
10:51AM 40.3600 -77.2294 167° South 402 463 18,000 -840 Level New York Center
10:53AM 40.2000 -77.2333 181° South 379 436 15,900 -1,440 Descending Potomac TRACON
10:54AM 40.0833 -77.2333 180° South 381 438 14,400 -1,380 Descending Potomac TRACON
10:55AM 39.9833 -77.2500 187° South 365 420 13,200 -720 Descending Potomac TRACON
10:56AM 39.8833 -77.2667 187° South 366 421 13,000 -420 Descending Potomac TRACON
10:56AM 39.8000 -77.2833 189° South 357 411 12,400 -1,440 Descending Potomac TRACON
10:58AM 39.7000 -77.3167 194° South 314 361 10,200 -1,200 Descending Potomac TRACON
10:58AM 39.6333 -77.3333 191° South 260 299 10,000 -720 Descending Potomac TRACON
10:59AM 39.5833 -77.3833 218° Southwest 251 289 8,900 -1,320 Descending Potomac TRACON
11:00AM 39.5167 -77.4333 210° Southwest 249 287 7,400 -960 Descending Potomac TRACON
11:01AM 39.4500 -77.4500 191° South 245 282 7,000 -300 Descending Potomac TRACON
11:02AM 39.3833 -77.4500 180° South 244 281 6,900 -840 Descending Potomac TRACON
11:03AM 39.3167 -77.4500 180° South 241 277 5,500 -1,200 Descending Potomac TRACON
11:04AM 39.2500 -77.4500 180° South 228 262 4,600 -780 Descending Potomac TRACON
11:05AM 39.2000 -77.4500 180° South 226 260 4,000 -600 Descending Potomac TRACON
11:06AM 39.1333 -77.4500 180° South 224 258 3,500 -900 Descending Potomac TRACON
11:07AM 39.0667 -77.4500 180° South 213 245 2,300 -1,080 Descending Potomac TRACON
11:08AM 39.0167 -77.4667 195° South 151 174 1,400 -900 Descending Potomac TRACON
11:09AM 39.0000 -77.4667 180° South 120 138 700 -780 Descending Potomac TRACON
11:11AM 38.9474 -77.4599 180° South  Level Estimated
11:18AM 38.9474 -77.4599 349° North  Level Estimated
11:19AM 38.9474 -77.4599 349° North  Level Estimated
11:20AM 38.9474 -77.4599 349° North  Level Estimated
11:21AM 38.9474 -77.4599 349° North  Level Estimated